Main page
METAR-TAF:

METAR-TAF

Airports :

Ørsta–Volda Airport. Hovden

Ørsta-Volda, Norway

latitude: 62-11N, longitude: 006-04E, elevation: 7 m

Current weather observation

The report was made 37 minutes ago, at 16:20 UTC
Wind 8 kt from the South/Southwest, varying between East and West/Southwest
Temperature 17°C
Humidity 55%
Pressure 1016 hPa
Visibility 10 km or more
Scattered clouds at a height of 4400 ft

METAR: ENOV 231620Z 20008KT 100V240 9999 SCT044 17/08 Q1016 RMK WIND RWY 24 23007KT WIND 2090FT 28015KT

Time: 18:57 (16:57 UTC)

Forecast

The report was made 2 hours and 57 minutes ago, at 14:00 UTC
Forecast valid from 23 at 15 UTC to 23 at 22 UTC
Wind 3 kt from variable directions
Visibility 10 km or more
Few clouds at a height of 4000 ft
Scattered clouds at a height of 8000 ft
Temporary
from 23 at 15 UTC to 23 at 18 UTC
Wind 10 kt from the Southwest

TAF: ENOV 231400Z 2315/2322 VRB03KT 9999 FEW040 SCT080 TEMPO 2315/2318 23010KT

Weather observations and forecasts of more than 4000 airports (METAR and TAF reports).

The available stations are represented by yellow and red dots on the map.

Hover mouse over dot to see the name of the station.

Then click to see weather observations and forecasts.

To change the map : click on the green buttons with a black cross to zoom in, on the green button with a dash to zoom out, or on the green arrows for adjacent maps.


METAR-TAF: